CheckWX is a tool to help pilots better visualize weather data.  It is not intended as a substitute for an official pre-flight weather briefing.

09:11:21 UTC

LLBG METAR
Ben Gurion International Airport
Tel Aviv, Israel
Current

21 mins ago

LLBG 230850Z 31010KT 280V350 9999 FEW040 30/17 Q1013 NOSIG
Observed
Sep-23 @ 08:50 UTC
Wind
  • 310° at 10 KTS
Visibility
10,000+ meters
Flight Rules
VFR
Cloud Levels
  • Few at 4,000' AGL
Temperature
30°C / 86°F
Dewpoint
17°C / 63°F
Heat Index
31°C / 87°F
Humidity
46%
Altimeter
29.91" Hg
Pressure
1012.92 hPa
Previous

51 mins ago

LLBG 230820Z 31009KT CAVOK 30/17 Q1014 NOSIG
Observed
Sep-23 @ 08:20 UTC
Wind
  • 310° at 9 KTS
Visibility
10,000+ meters
Flight Rules
VFR
Cloud Levels
  • Clear skies
Temperature
30°C / 86°F
Dewpoint
17°C / 63°F
Heat Index
31°C / 87°F
Humidity
46%
Altimeter
29.94" Hg
Pressure
1013.92 hPa
Previous

1 hour ago

LLBG 230750Z 34008KT CAVOK 29/16 Q1014 NOSIG
Observed
Sep-23 @ 07:50 UTC
Wind
  • 340° at 8 KTS
Visibility
10,000+ meters
Flight Rules
VFR
Cloud Levels
  • Clear skies
Temperature
29°C / 84°F
Dewpoint
16°C / 61°F
Heat Index
29°C / 84°F
Humidity
45%
Altimeter
29.94" Hg
Pressure
1013.92 hPa